sensor_id;sensor_type;location;lat;lon;timestamp;pressure;altitude;pressure_sealevel;temperature;humidity
57248;BME280;55809;46.618;10.764;2022-08-18T00:01:36;92797.19;;;19.70;72.21
57248;BME280;55809;46.618;10.764;2022-08-18T00:04:04;92803.31;;;19.64;72.17
57248;BME280;55809;46.618;10.764;2022-08-18T00:06:31;92804.06;;;19.65;71.50
57248;BME280;55809;46.618;10.764;2022-08-18T00:08:58;92814.25;;;19.64;71.68
57248;BME280;55809;46.618;10.764;2022-08-18T00:11:26;92817.56;;;19.59;71.66
57248;BME280;55809;46.618;10.764;2022-08-18T00:13:55;92826.69;;;19.56;72.06
57248;BME280;55809;46.618;10.764;2022-08-18T00:16:22;92823.53;;;19.49;72.06
57248;BME280;55809;46.618;10.764;2022-08-18T00:18:49;92819.72;;;19.46;71.70
57248;BME280;55809;46.618;10.764;2022-08-18T00:21:15;92822.91;;;19.44;71.53
57248;BME280;55809;46.618;10.764;2022-08-18T00:23:43;92824.59;;;19.42;71.46
57248;BME280;55809;46.618;10.764;2022-08-18T00:26:10;92825.19;;;19.46;71.86
57248;BME280;55809;46.618;10.764;2022-08-18T00:28:36;92818.22;;;19.45;72.12
57248;BME280;55809;46.618;10.764;2022-08-18T00:31:07;92828.09;;;19.42;72.14
57248;BME280;55809;46.618;10.764;2022-08-18T00:33:34;92824.13;;;19.34;71.60
57248;BME280;55809;46.618;10.764;2022-08-18T00:36:00;92800.28;;;19.26;71.71
57248;BME280;55809;46.618;10.764;2022-08-18T00:38:27;92804.53;;;19.27;71.34
57248;BME280;55809;46.618;10.764;2022-08-18T00:40:54;92809.22;;;19.17;71.49
57248;BME280;55809;46.618;10.764;2022-08-18T00:43:23;92807.25;;;19.17;71.72
57248;BME280;55809;46.618;10.764;2022-08-18T00:45:52;92812.13;;;19.23;71.86
57248;BME280;55809;46.618;10.764;2022-08-18T00:48:20;92808.31;;;19.20;72.50
57248;BME280;55809;46.618;10.764;2022-08-18T00:50:48;92799.97;;;19.14;72.48
57248;BME280;55809;46.618;10.764;2022-08-18T00:53:18;92793.88;;;19.10;71.98
57248;BME280;55809;46.618;10.764;2022-08-18T00:55:45;92798.44;;;19.04;72.14
57248;BME280;55809;46.618;10.764;2022-08-18T00:58:15;92789.16;;;19.02;72.32
57248;BME280;55809;46.618;10.764;2022-08-18T01:00:45;92795.69;;;19.04;72.47
57248;BME280;55809;46.618;10.764;2022-08-18T01:03:13;92802.25;;;19.07;72.73
57248;BME280;55809;46.618;10.764;2022-08-18T01:05:44;92803.63;;;19.02;72.80
57248;BME280;55809;46.618;10.764;2022-08-18T01:08:13;92793.28;;;18.97;72.61
57248;BME280;55809;46.618;10.764;2022-08-18T01:10:41;92790.09;;;18.89;72.80
57248;BME280;55809;46.618;10.764;2022-08-18T01:13:08;92792.03;;;18.80;73.00
57248;BME280;55809;46.618;10.764;2022-08-18T01:15:35;92790.31;;;18.64;72.83
57248;BME280;55809;46.618;10.764;2022-08-18T01:18:03;92787.72;;;18.51;73.28
57248;BME280;55809;46.618;10.764;2022-08-18T01:20:51;92789.06;;;18.56;73.28
57248;BME280;55809;46.618;10.764;2022-08-18T01:23:39;92787.72;;;18.60;72.93
57248;BME280;55809;46.618;10.764;2022-08-18T01:26:06;92791.06;;;18.64;72.89
57248;BME280;55809;46.618;10.764;2022-08-18T01:28:34;92795.03;;;18.63;72.64
57248;BME280;55809;46.618;10.764;2022-08-18T01:31:02;92795.63;;;18.67;73.03
57248;BME280;55809;46.618;10.764;2022-08-18T01:33:31;92799.28;;;18.64;73.41
57248;BME280;55809;46.618;10.764;2022-08-18T01:35:59;92802.75;;;18.65;73.16
57248;BME280;55809;46.618;10.764;2022-08-18T01:38:26;92811.28;;;18.67;72.92
57248;BME280;55809;46.618;10.764;2022-08-18T01:40:57;92805.06;;;18.66;73.01
57248;BME280;55809;46.618;10.764;2022-08-18T01:43:24;92805.97;;;18.63;73.04
57248;BME280;55809;46.618;10.764;2022-08-18T01:45:51;92802.91;;;18.61;73.01
57248;BME280;55809;46.618;10.764;2022-08-18T01:48:18;92810.19;;;18.55;72.92
57248;BME280;55809;46.618;10.764;2022-08-18T01:50:45;92811.22;;;18.48;72.82
57248;BME280;55809;46.618;10.764;2022-08-18T01:53:13;92816.22;;;18.41;73.07
57248;BME280;55809;46.618;10.764;2022-08-18T01:55:42;92818.81;;;18.44;72.96
57248;BME280;55809;46.618;10.764;2022-08-18T01:58:11;92807.31;;;18.49;73.10
57248;BME280;55809;46.618;10.764;2022-08-18T02:00:38;92788.31;;;18.55;73.45
57248;BME280;55809;46.618;10.764;2022-08-18T02:03:06;92790.00;;;18.52;74.10
57248;BME280;55809;46.618;10.764;2022-08-18T02:05:36;92791.66;;;18.50;74.48
57248;BME280;55809;46.618;10.764;2022-08-18T02:08:04;92785.28;;;18.53;73.90
57248;BME280;55809;46.618;10.764;2022-08-18T02:10:31;92793.31;;;18.47;73.99
57248;BME280;55809;46.618;10.764;2022-08-18T02:12:57;92801.50;;;18.47;73.71
57248;BME280;55809;46.618;10.764;2022-08-18T02:15:25;92808.16;;;18.37;74.24
57248;BME280;55809;46.618;10.764;2022-08-18T02:17:54;92799.03;;;18.31;74.48
57248;BME280;55809;46.618;10.764;2022-08-18T02:20:20;92792.06;;;18.30;74.24
57248;BME280;55809;46.618;10.764;2022-08-18T02:22:47;92807.53;;;18.24;74.15
57248;BME280;55809;46.618;10.764;2022-08-18T02:25:15;92805.53;;;18.24;74.24
57248;BME280;55809;46.618;10.764;2022-08-18T02:27:42;92791.88;;;18.24;74.16
57248;BME280;55809;46.618;10.764;2022-08-18T02:30:11;92795.19;;;18.19;73.93
57248;BME280;55809;46.618;10.764;2022-08-18T02:32:40;92785.81;;;18.20;74.19
57248;BME280;55809;46.618;10.764;2022-08-18T02:35:07;92790.50;;;18.20;74.42
57248;BME280;55809;46.618;10.764;2022-08-18T02:37:35;92800.66;;;18.19;74.75
57248;BME280;55809;46.618;10.764;2022-08-18T02:40:02;92807.19;;;18.22;74.65
57248;BME280;55809;46.618;10.764;2022-08-18T02:42:29;92804.03;;;18.23;75.10
57248;BME280;55809;46.618;10.764;2022-08-18T02:44:56;92802.66;;;18.28;75.30
57248;BME280;55809;46.618;10.764;2022-08-18T02:47:22;92797.81;;;18.23;75.43
57248;BME280;55809;46.618;10.764;2022-08-18T02:49:51;92792.78;;;18.21;75.42
57248;BME280;55809;46.618;10.764;2022-08-18T02:52:17;92798.25;;;18.21;75.57
57248;BME280;55809;46.618;10.764;2022-08-18T02:54:44;92802.81;;;18.24;75.48
57248;BME280;55809;46.618;10.764;2022-08-18T02:57:11;92801.00;;;18.31;75.36
57248;BME280;55809;46.618;10.764;2022-08-18T02:59:38;92791.47;;;18.35;75.41
57248;BME280;55809;46.618;10.764;2022-08-18T03:02:05;92780.84;;;18.37;75.58
57248;BME280;55809;46.618;10.764;2022-08-18T03:04:33;92781.59;;;18.38;75.68
57248;BME280;55809;46.618;10.764;2022-08-18T03:07:03;92769.75;;;18.32;75.75
57248;BME280;55809;46.618;10.764;2022-08-18T03:09:30;92768.53;;;18.33;75.56
57248;BME280;55809;46.618;10.764;2022-08-18T03:11:58;92750.63;;;18.32;75.47
57248;BME280;55809;46.618;10.764;2022-08-18T03:14:25;92749.28;;;18.36;75.51
57248;BME280;55809;46.618;10.764;2022-08-18T03:16:51;92759.59;;;18.41;75.75
57248;BME280;55809;46.618;10.764;2022-08-18T03:19:18;92759.16;;;18.43;75.66
57248;BME280;55809;46.618;10.764;2022-08-18T03:21:46;92760.19;;;18.45;75.65
57248;BME280;55809;46.618;10.764;2022-08-18T03:24:14;92754.44;;;18.43;75.76
57248;BME280;55809;46.618;10.764;2022-08-18T03:26:42;92743.50;;;18.43;76.10
57248;BME280;55809;46.618;10.764;2022-08-18T03:29:09;92739.09;;;18.37;76.89
57248;BME280;55809;46.618;10.764;2022-08-18T03:31:37;92741.06;;;18.36;76.58
57248;BME280;55809;46.618;10.764;2022-08-18T03:34:05;92728.94;;;18.37;76.42
57248;BME280;55809;46.618;10.764;2022-08-18T03:36:32;92729.69;;;18.38;76.00
57248;BME280;55809;46.618;10.764;2022-08-18T03:39:01;92724.38;;;18.34;76.06
57248;BME280;55809;46.618;10.764;2022-08-18T03:41:30;92710.53;;;18.28;76.27
57248;BME280;55809;46.618;10.764;2022-08-18T03:43:57;92700.81;;;18.27;76.43
57248;BME280;55809;46.618;10.764;2022-08-18T03:46:24;92695.69;;;18.30;76.94
57248;BME280;55809;46.618;10.764;2022-08-18T03:48:52;92689.44;;;18.29;76.87
57248;BME280;55809;46.618;10.764;2022-08-18T03:51:19;92673.81;;;18.30;76.94
57248;BME280;55809;46.618;10.764;2022-08-18T03:53:46;92672.44;;;18.25;76.91
57248;BME280;55809;46.618;10.764;2022-08-18T03:56:14;92664.06;;;18.19;77.29
57248;BME280;55809;46.618;10.764;2022-08-18T03:58:43;92664.84;;;18.20;76.65
57248;BME280;55809;46.618;10.764;2022-08-18T04:01:11;92673.63;;;18.15;77.09
57248;BME280;55809;46.618;10.764;2022-08-18T04:03:41;92681.06;;;18.14;77.07
57248;BME280;55809;46.618;10.764;2022-08-18T04:06:13;92694.25;;;18.16;76.90
57248;BME280;55809;46.618;10.764;2022-08-18T04:08:40;92699.59;;;18.19;76.93
57248;BME280;55809;46.618;10.764;2022-08-18T04:11:08;92698.38;;;18.20;76.87
57248;BME280;55809;46.618;10.764;2022-08-18T04:13:35;92709.31;;;18.20;76.71
57248;BME280;55809;46.618;10.764;2022-08-18T04:16:05;92708.69;;;18.16;76.79
57248;BME280;55809;46.618;10.764;2022-08-18T04:18:32;92708.31;;;17.96;77.67
57248;BME280;55809;46.618;10.764;2022-08-18T04:21:00;92698.75;;;17.91;77.90
57248;BME280;55809;46.618;10.764;2022-08-18T04:23:27;92708.31;;;17.96;78.19
57248;BME280;55809;46.618;10.764;2022-08-18T04:25:54;92710.16;;;17.99;77.93
57248;BME280;55809;46.618;10.764;2022-08-18T04:28:21;92727.59;;;17.92;78.48
57248;BME280;55809;46.618;10.764;2022-08-18T04:30:48;92728.66;;;17.95;78.72
57248;BME280;55809;46.618;10.764;2022-08-18T04:33:16;92726.53;;;17.99;78.63
57248;BME280;55809;46.618;10.764;2022-08-18T04:35:43;92729.88;;;18.03;78.90
57248;BME280;55809;46.618;10.764;2022-08-18T04:38:11;92726.72;;;18.04;78.05
57248;BME280;55809;46.618;10.764;2022-08-18T04:40:38;92731.44;;;18.04;77.88
57248;BME280;55809;46.618;10.764;2022-08-18T04:43:05;92736.28;;;18.00;78.02
57248;BME280;55809;46.618;10.764;2022-08-18T04:45:36;92733.84;;;18.02;78.05
57248;BME280;55809;46.618;10.764;2022-08-18T04:48:04;92732.94;;;18.05;78.39
57248;BME280;55809;46.618;10.764;2022-08-18T04:50:32;92742.81;;;18.12;78.28
57248;BME280;55809;46.618;10.764;2022-08-18T04:53:01;92742.06;;;18.11;77.93
57248;BME280;55809;46.618;10.764;2022-08-18T04:55:45;92734.81;;;18.17;77.32
57248;BME280;55809;46.618;10.764;2022-08-18T04:58:12;92721.00;;;18.21;76.84
57248;BME280;55809;46.618;10.764;2022-08-18T05:00:40;92729.06;;;18.24;76.12
57248;BME280;55809;46.618;10.764;2022-08-18T05:03:08;92736.31;;;18.18;76.37
57248;BME280;55809;46.618;10.764;2022-08-18T05:05:36;92754.81;;;18.14;76.40
57248;BME280;55809;46.618;10.764;2022-08-18T05:08:03;92761.22;;;18.20;76.48
57248;BME280;55809;46.618;10.764;2022-08-18T05:10:30;92764.25;;;18.22;76.90
57248;BME280;55809;46.618;10.764;2022-08-18T05:12:57;92759.09;;;18.24;77.83
57248;BME280;55809;46.618;10.764;2022-08-18T05:15:24;92752.41;;;18.25;77.77
57248;BME280;55809;46.618;10.764;2022-08-18T05:17:50;92757.59;;;18.23;77.75
57248;BME280;55809;46.618;10.764;2022-08-18T05:20:18;92755.91;;;18.26;77.68
57248;BME280;55809;46.618;10.764;2022-08-18T05:22:46;92770.50;;;18.32;78.26
57248;BME280;55809;46.618;10.764;2022-08-18T05:25:13;92760.63;;;18.35;78.36
57248;BME280;55809;46.618;10.764;2022-08-18T05:27:41;92762.16;;;18.36;78.28
57248;BME280;55809;46.618;10.764;2022-08-18T05:30:09;92754.28;;;18.38;78.26
57248;BME280;55809;46.618;10.764;2022-08-18T05:32:37;92748.81;;;18.38;77.38
57248;BME280;55809;46.618;10.764;2022-08-18T05:35:06;92745.94;;;18.41;77.83
57248;BME280;55809;46.618;10.764;2022-08-18T05:37:35;92752.44;;;18.35;78.09
57248;BME280;55809;46.618;10.764;2022-08-18T05:40:08;92761.25;;;18.39;78.40
57248;BME280;55809;46.618;10.764;2022-08-18T05:42:36;92747.75;;;18.44;78.35
57248;BME280;55809;46.618;10.764;2022-08-18T05:45:05;92745.50;;;18.52;78.19
57248;BME280;55809;46.618;10.764;2022-08-18T05:47:33;92737.47;;;18.58;79.18
57248;BME280;55809;46.618;10.764;2022-08-18T05:50:02;92728.19;;;18.64;78.98
57248;BME280;55809;46.618;10.764;2022-08-18T05:52:31;92737.00;;;18.68;78.76
57248;BME280;55809;46.618;10.764;2022-08-18T05:55:00;92745.88;;;18.72;78.29
57248;BME280;55809;46.618;10.764;2022-08-18T05:57:47;92749.38;;;18.82;78.52
57248;BME280;55809;46.618;10.764;2022-08-18T06:00:15;92761.50;;;18.90;78.55
57248;BME280;55809;46.618;10.764;2022-08-18T06:02:43;92755.28;;;18.99;78.16
57248;BME280;55809;46.618;10.764;2022-08-18T06:05:13;92759.22;;;19.07;77.99
57248;BME280;55809;46.618;10.764;2022-08-18T06:07:41;92761.06;;;19.19;77.95
57248;BME280;55809;46.618;10.764;2022-08-18T06:10:08;92771.69;;;19.36;78.01
57248;BME280;55809;46.618;10.764;2022-08-18T06:12:36;92772.09;;;19.53;77.46
57248;BME280;55809;46.618;10.764;2022-08-18T06:15:09;92786.56;;;19.72;76.57
57248;BME280;55809;46.618;10.764;2022-08-18T06:17:52;92774.81;;;19.80;76.87
57248;BME280;55809;46.618;10.764;2022-08-18T06:20:24;92758.34;;;19.89;77.92
57248;BME280;55809;46.618;10.764;2022-08-18T06:22:56;92767.13;;;20.03;76.60
57248;BME280;55809;46.618;10.764;2022-08-18T06:25:26;92763.44;;;20.15;76.65
57248;BME280;55809;46.618;10.764;2022-08-18T06:28:00;92771.22;;;20.07;77.27
57248;BME280;55809;46.618;10.764;2022-08-18T06:30:38;92768.63;;;20.04;76.64
57248;BME280;55809;46.618;10.764;2022-08-18T06:33:09;92769.69;;;20.06;76.28
57248;BME280;55809;46.618;10.764;2022-08-18T06:35:40;92787.91;;;20.19;74.55
57248;BME280;55809;46.618;10.764;2022-08-18T06:38:16;92804.38;;;20.09;74.39
57248;BME280;55809;46.618;10.764;2022-08-18T06:41:02;92805.03;;;20.04;75.80
57248;BME280;55809;46.618;10.764;2022-08-18T06:43:29;92792.25;;;20.01;76.36
57248;BME280;55809;46.618;10.764;2022-08-18T06:45:59;92781.91;;;19.96;76.64
57248;BME280;55809;46.618;10.764;2022-08-18T06:48:29;92793.75;;;20.02;77.12
57248;BME280;55809;46.618;10.764;2022-08-18T06:50:59;92795.28;;;20.03;75.29
57248;BME280;55809;46.618;10.764;2022-08-18T06:56:18;92802.81;;;19.84;75.88
57248;BME280;55809;46.618;10.764;2022-08-18T06:58:45;92811.16;;;19.81;76.25
57248;BME280;55809;46.618;10.764;2022-08-18T07:01:14;92808.31;;;19.75;77.08
57248;BME280;55809;46.618;10.764;2022-08-18T07:03:43;92804.19;;;19.71;77.96
57248;BME280;55809;46.618;10.764;2022-08-18T07:06:22;92818.50;;;19.75;76.63
57248;BME280;55809;46.618;10.764;2022-08-18T07:08:51;92825.34;;;19.70;75.67
57248;BME280;55809;46.618;10.764;2022-08-18T07:11:20;92837.22;;;19.67;76.98
57248;BME280;55809;46.618;10.764;2022-08-18T07:13:47;92831.56;;;19.61;77.64
57248;BME280;55809;46.618;10.764;2022-08-18T07:16:18;92826.25;;;19.67;78.33
57248;BME280;55809;46.618;10.764;2022-08-18T07:18:47;92837.97;;;19.77;78.99
57248;BME280;55809;46.618;10.764;2022-08-18T07:21:26;92835.47;;;19.97;79.59
57248;BME280;55809;46.618;10.764;2022-08-18T07:23:57;92821.56;;;20.19;80.66
57248;BME280;55809;46.618;10.764;2022-08-18T07:26:24;92810.94;;;20.54;79.59
57248;BME280;55809;46.618;10.764;2022-08-18T07:28:52;92817.66;;;20.44;80.73
57248;BME280;55809;46.618;10.764;2022-08-18T07:31:29;92831.72;;;20.37;80.94
57248;BME280;55809;46.618;10.764;2022-08-18T07:34:00;92825.03;;;20.29;81.63
57248;BME280;55809;46.618;10.764;2022-08-18T07:36:30;92838.16;;;20.25;82.58
57248;BME280;55809;46.618;10.764;2022-08-18T07:39:00;92846.22;;;20.19;81.60
57248;BME280;55809;46.618;10.764;2022-08-18T07:41:30;92857.81;;;20.14;81.00
57248;BME280;55809;46.618;10.764;2022-08-18T07:44:02;92856.31;;;20.04;81.58
57248;BME280;55809;46.618;10.764;2022-08-18T07:46:34;92863.78;;;20.03;81.58
57248;BME280;55809;46.618;10.764;2022-08-18T07:49:02;92859.38;;;19.97;81.28
57248;BME280;55809;46.618;10.764;2022-08-18T07:51:31;92867.59;;;19.97;81.56
57248;BME280;55809;46.618;10.764;2022-08-18T07:54:09;92860.25;;;20.12;80.34
57248;BME280;55809;46.618;10.764;2022-08-18T07:56:42;92871.47;;;20.23;79.71
57248;BME280;55809;46.618;10.764;2022-08-18T07:59:15;92870.19;;;20.43;78.16
57248;BME280;55809;46.618;10.764;2022-08-18T08:01:49;92865.19;;;20.41;77.29
57248;BME280;55809;46.618;10.764;2022-08-18T08:04:21;92860.50;;;20.32;78.20
57248;BME280;55809;46.618;10.764;2022-08-18T08:06:53;92851.38;;;20.26;77.69
57248;BME280;55809;46.618;10.764;2022-08-18T08:09:22;92856.69;;;20.30;78.48
57248;BME280;55809;46.618;10.764;2022-08-18T08:11:52;92864.91;;;20.30;79.56
57248;BME280;55809;46.618;10.764;2022-08-18T08:14:26;92874.69;;;20.31;80.08
57248;BME280;55809;46.618;10.764;2022-08-18T08:16:59;92887.47;;;20.34;80.28
57248;BME280;55809;46.618;10.764;2022-08-18T08:22:17;92893.28;;;20.18;81.96
57248;BME280;55809;46.618;10.764;2022-08-18T08:24:48;92911.41;;;20.06;82.74
57248;BME280;55809;46.618;10.764;2022-08-18T08:27:17;92929.25;;;20.01;82.55
57248;BME280;55809;46.618;10.764;2022-08-18T08:29:48;92930.31;;;19.95;83.45
57248;BME280;55809;46.618;10.764;2022-08-18T08:32:22;92945.69;;;19.92;83.19
57248;BME280;55809;46.618;10.764;2022-08-18T08:34:54;92947.97;;;19.84;82.93
57248;BME280;55809;46.618;10.764;2022-08-18T08:37:26;92959.69;;;19.76;83.82
57248;BME280;55809;46.618;10.764;2022-08-18T08:39:56;92984.03;;;19.74;83.15
57248;BME280;55809;46.618;10.764;2022-08-18T08:42:25;92970.78;;;19.72;83.19
57248;BME280;55809;46.618;10.764;2022-08-18T08:44:54;92979.16;;;19.68;84.30
57248;BME280;55809;46.618;10.764;2022-08-18T08:47:25;92981.28;;;19.74;84.68
57248;BME280;55809;46.618;10.764;2022-08-18T08:49:55;92963.75;;;19.62;84.38
57248;BME280;55809;46.618;10.764;2022-08-18T08:52:24;92953.84;;;19.46;85.05
57248;BME280;55809;46.618;10.764;2022-08-18T08:54:52;92935.00;;;19.48;86.84
57248;BME280;55809;46.618;10.764;2022-08-18T08:57:24;92935.91;;;19.36;86.22
57248;BME280;55809;46.618;10.764;2022-08-18T08:59:51;92928.13;;;19.34;86.74
57248;BME280;55809;46.618;10.764;2022-08-18T09:02:31;92931.44;;;19.11;87.59
57248;BME280;55809;46.618;10.764;2022-08-18T09:05:02;92925.50;;;19.03;89.10
57248;BME280;55809;46.618;10.764;2022-08-18T09:07:38;92931.56;;;18.98;90.33
57248;BME280;55809;46.618;10.764;2022-08-18T09:10:27;92924.88;;;18.99;91.88
57248;BME280;55809;46.618;10.764;2022-08-18T09:13:00;92936.41;;;18.94;92.16
57248;BME280;55809;46.618;10.764;2022-08-18T09:15:39;92940.94;;;18.88;92.23
57248;BME280;55809;46.618;10.764;2022-08-18T09:18:21;92930.78;;;18.97;93.00
57248;BME280;55809;46.618;10.764;2022-08-18T09:20:56;92930.03;;;18.97;90.94
57248;BME280;55809;46.618;10.764;2022-08-18T09:23:29;92907.50;;;18.84;92.70
57248;BME280;55809;46.618;10.764;2022-08-18T09:25:59;92897.94;;;18.48;94.71
57248;BME280;55809;46.618;10.764;2022-08-18T09:35:04;92840.34;;;18.02;94.49
57248;BME280;55809;46.618;10.764;2022-08-18T09:37:39;92831.25;;;18.05;97.00
57248;BME280;55809;46.618;10.764;2022-08-18T09:40:10;92811.53;;;18.01;97.99
57248;BME280;55809;46.618;10.764;2022-08-18T09:42:58;92807.28;;;18.00;97.81
57248;BME280;55809;46.618;10.764;2022-08-18T09:45:51;92808.31;;;17.93;97.07
57248;BME280;55809;46.618;10.764;2022-08-18T09:48:26;92805.16;;;18.04;97.51
57248;BME280;55809;46.618;10.764;2022-08-18T09:54:04;92775.41;;;17.97;96.17
57248;BME280;55809;46.618;10.764;2022-08-18T10:05:26;92672.81;;;17.96;94.77
57248;BME280;55809;46.618;10.764;2022-08-18T10:10:44;92656.03;;;18.16;92.01
57248;BME280;55809;46.618;10.764;2022-08-18T10:13:14;92661.19;;;18.32;93.68
57248;BME280;55809;46.618;10.764;2022-08-18T10:15:47;92655.31;;;18.43;96.34
57248;BME280;55809;46.618;10.764;2022-08-18T10:21:01;92657.47;;;18.76;91.55
57248;BME280;55809;46.618;10.764;2022-08-18T10:23:43;92662.88;;;19.03;89.25
57248;BME280;55809;46.618;10.764;2022-08-18T10:28:55;92650.09;;;19.61;88.71
57248;BME280;55809;46.618;10.764;2022-08-18T10:31:22;92629.88;;;19.58;87.55
57248;BME280;55809;46.618;10.764;2022-08-18T10:33:59;92611.66;;;19.64;87.85
57248;BME280;55809;46.618;10.764;2022-08-18T10:36:37;92626.97;;;19.71;85.44
57248;BME280;55809;46.618;10.764;2022-08-18T10:39:05;92636.53;;;20.00;83.79
57248;BME280;55809;46.618;10.764;2022-08-18T10:41:32;92642.38;;;20.17;83.64
57248;BME280;55809;46.618;10.764;2022-08-18T10:44:03;92645.91;;;20.17;83.86
57248;BME280;55809;46.618;10.764;2022-08-18T10:46:32;92650.91;;;20.19;82.24
57248;BME280;55809;46.618;10.764;2022-08-18T10:49:04;92650.53;;;20.02;84.24
57248;BME280;55809;46.618;10.764;2022-08-18T10:51:42;92652.41;;;19.96;82.34
57248;BME280;55809;46.618;10.764;2022-08-18T10:54:16;92650.25;;;20.00;81.71
57248;BME280;55809;46.618;10.764;2022-08-18T10:56:49;92642.72;;;20.09;81.29
57248;BME280;55809;46.618;10.764;2022-08-18T10:59:20;92638.13;;;20.15;81.22
57248;BME280;55809;46.618;10.764;2022-08-18T11:01:57;92633.13;;;20.14;81.43
57248;BME280;55809;46.618;10.764;2022-08-18T11:04:28;92621.09;;;20.11;82.44
57248;BME280;55809;46.618;10.764;2022-08-18T11:07:00;92639.22;;;20.09;83.86
57248;BME280;55809;46.618;10.764;2022-08-18T11:09:28;92631.19;;;20.05;82.60
57248;BME280;55809;46.618;10.764;2022-08-18T11:11:56;92633.56;;;19.88;83.00
57248;BME280;55809;46.618;10.764;2022-08-18T11:14:30;92644.09;;;19.81;82.47
57248;BME280;55809;46.618;10.764;2022-08-18T11:17:05;92645.97;;;19.75;84.82
57248;BME280;55809;46.618;10.764;2022-08-18T11:19:34;92658.94;;;19.65;85.07
57248;BME280;55809;46.618;10.764;2022-08-18T11:22:03;92652.53;;;19.59;85.92
57248;BME280;55809;46.618;10.764;2022-08-18T11:24:30;92651.03;;;19.58;86.86
57248;BME280;55809;46.618;10.764;2022-08-18T11:27:00;92665.66;;;19.55;87.41
57248;BME280;55809;46.618;10.764;2022-08-18T11:29:30;92667.00;;;19.50;87.93
57248;BME280;55809;46.618;10.764;2022-08-18T11:31:58;92672.50;;;19.50;88.76
57248;BME280;55809;46.618;10.764;2022-08-18T11:34:29;92668.41;;;19.45;88.21
57248;BME280;55809;46.618;10.764;2022-08-18T11:36:57;92692.75;;;19.43;88.44
57248;BME280;55809;46.618;10.764;2022-08-18T11:39:25;92699.88;;;19.41;89.09
57248;BME280;55809;46.618;10.764;2022-08-18T11:41:52;92701.13;;;19.40;89.32
57248;BME280;55809;46.618;10.764;2022-08-18T11:44:20;92722.09;;;19.34;90.65
57248;BME280;55809;46.618;10.764;2022-08-18T11:46:50;92726.69;;;19.28;90.84
57248;BME280;55809;46.618;10.764;2022-08-18T11:49:24;92744.19;;;19.03;91.28
57248;BME280;55809;46.618;10.764;2022-08-18T11:51:55;92759.78;;;18.65;92.69
57248;BME280;55809;46.618;10.764;2022-08-18T11:54:22;92764.91;;;18.45;92.85
57248;BME280;55809;46.618;10.764;2022-08-18T11:59:40;92762.22;;;18.04;97.11
57248;BME280;55809;46.618;10.764;2022-08-18T12:02:08;92748.66;;;17.92;99.66
57248;BME280;55809;46.618;10.764;2022-08-18T12:04:36;92753.22;;;17.95;100.00
57248;BME280;55809;46.618;10.764;2022-08-18T12:07:05;92748.19;;;17.84;98.16
57248;BME280;55809;46.618;10.764;2022-08-18T12:09:33;92743.00;;;17.77;99.86
57248;BME280;55809;46.618;10.764;2022-08-18T12:12:02;92735.88;;;17.79;99.25
57248;BME280;55809;46.618;10.764;2022-08-18T12:14:31;92714.75;;;17.71;100.00
57248;BME280;55809;46.618;10.764;2022-08-18T12:16:59;92693.34;;;17.69;100.00
57248;BME280;55809;46.618;10.764;2022-08-18T12:19:27;92671.06;;;17.71;100.00
57248;BME280;55809;46.618;10.764;2022-08-18T12:21:56;92656.03;;;17.66;100.00
57248;BME280;55809;46.618;10.764;2022-08-18T12:24:24;92634.50;;;17.68;100.00
57248;BME280;55809;46.618;10.764;2022-08-18T12:26:51;92628.00;;;17.75;100.00
57248;BME280;55809;46.618;10.764;2022-08-18T12:29:18;92609.81;;;17.72;100.00
57248;BME280;55809;46.618;10.764;2022-08-18T12:31:45;92600.53;;;17.69;100.00
57248;BME280;55809;46.618;10.764;2022-08-18T12:34:14;92591.59;;;17.69;100.00
57248;BME280;55809;46.618;10.764;2022-08-18T12:36:43;92585.28;;;17.81;100.00
57248;BME280;55809;46.618;10.764;2022-08-18T12:39:10;92588.78;;;17.81;100.00
57248;BME280;55809;46.618;10.764;2022-08-18T12:41:38;92579.81;;;17.81;100.00
57248;BME280;55809;46.618;10.764;2022-08-18T12:44:04;92569.66;;;17.81;100.00
57248;BME280;55809;46.618;10.764;2022-08-18T12:46:31;92557.09;;;17.93;100.00
57248;BME280;55809;46.618;10.764;2022-08-18T12:48:59;92555.88;;;18.03;100.00
57248;BME280;55809;46.618;10.764;2022-08-18T12:51:26;92554.34;;;18.12;100.00
57248;BME280;55809;46.618;10.764;2022-08-18T12:53:54;92564.22;;;18.18;100.00
57248;BME280;55809;46.618;10.764;2022-08-18T12:56:22;92567.84;;;18.15;100.00
57248;BME280;55809;46.618;10.764;2022-08-18T12:58:49;92557.69;;;18.16;100.00
57248;BME280;55809;46.618;10.764;2022-08-18T13:01:17;92544.94;;;18.22;100.00
57248;BME280;55809;46.618;10.764;2022-08-18T13:03:45;92541.13;;;18.28;100.00
57248;BME280;55809;46.618;10.764;2022-08-18T13:06:12;92539.47;;;18.31;100.00
57248;BME280;55809;46.618;10.764;2022-08-18T13:08:40;92542.38;;;18.18;100.00
57248;BME280;55809;46.618;10.764;2022-08-18T13:11:09;92544.66;;;18.01;100.00
57248;BME280;55809;46.618;10.764;2022-08-18T13:13:36;92554.50;;;17.99;100.00
57248;BME280;55809;46.618;10.764;2022-08-18T13:16:10;92555.72;;;18.07;100.00
57248;BME280;55809;46.618;10.764;2022-08-18T13:18:38;92564.53;;;18.20;100.00
57248;BME280;55809;46.618;10.764;2022-08-18T13:21:06;92571.81;;;18.23;98.24
57248;BME280;55809;46.618;10.764;2022-08-18T13:23:33;92569.22;;;18.29;97.76
57248;BME280;55809;46.618;10.764;2022-08-18T13:26:00;92589.84;;;18.39;98.73
57248;BME280;55809;46.618;10.764;2022-08-18T13:28:29;92599.44;;;18.44;100.00
57248;BME280;55809;46.618;10.764;2022-08-18T13:30:56;92607.78;;;18.49;100.00
57248;BME280;55809;46.618;10.764;2022-08-18T13:33:23;92617.03;;;18.61;100.00
57248;BME280;55809;46.618;10.764;2022-08-18T13:35:51;92620.81;;;18.64;98.34